createdAt,value
2022-10-10T00:01:22.876Z,10.50
2022-10-10T00:03:49.552Z,10.60
2022-10-10T00:06:16.626Z,10.60
2022-10-10T00:08:43.739Z,10.60
2022-10-10T00:11:12.401Z,10.70
2022-10-10T00:13:39.261Z,10.70
2022-10-10T00:16:06.387Z,10.70
2022-10-10T00:18:33.988Z,10.80
2022-10-10T00:21:00.534Z,10.80
2022-10-10T00:23:27.254Z,10.80
2022-10-10T00:25:53.918Z,10.80
2022-10-10T00:28:20.566Z,10.80
2022-10-10T00:30:47.417Z,10.80
2022-10-10T00:33:14.663Z,10.80
2022-10-10T00:35:41.816Z,10.80
2022-10-10T00:38:10.226Z,10.80
2022-10-10T00:40:45.814Z,10.80
2022-10-10T00:43:13.645Z,10.80
2022-10-10T00:45:42.611Z,10.80
2022-10-10T00:48:24.141Z,10.80
2022-10-10T00:50:57.358Z,10.80
2022-10-10T00:53:28.335Z,10.80
2022-10-10T00:55:55.571Z,10.80
2022-10-10T00:58:23.925Z,10.80
2022-10-10T01:00:51.786Z,10.80
2022-10-10T01:03:18.690Z,10.80
2022-10-10T01:05:47.237Z,10.80
2022-10-10T01:08:14.784Z,10.90
2022-10-10T01:11:38.187Z,10.90
2022-10-10T01:14:26.209Z,10.80
2022-10-10T01:17:09.863Z,10.80
2022-10-10T01:20:26.818Z,10.90
2022-10-10T01:23:03.004Z,10.90
2022-10-10T01:25:35.416Z,11.00
2022-10-10T01:28:23.006Z,11.00
2022-10-10T01:30:50.098Z,11.00
2022-10-10T01:33:25.176Z,11.10
2022-10-10T01:36:22.552Z,11.10
2022-10-10T01:38:57.415Z,11.10
2022-10-10T01:41:36.868Z,11.10
2022-10-10T01:44:03.428Z,11.10
2022-10-10T01:46:32.575Z,11.00
2022-10-10T01:49:00.432Z,11.00
2022-10-10T01:52:03.351Z,11.00
2022-10-10T01:54:50.862Z,11.00
2022-10-10T01:57:56.348Z,11.00
2022-10-10T02:00:22.943Z,11.00
2022-10-10T02:03:05.230Z,11.00
2022-10-10T02:05:51.998Z,11.00
2022-10-10T02:08:31.110Z,10.90
2022-10-10T02:11:04.994Z,11.00
2022-10-10T02:13:48.421Z,10.90
2022-10-10T02:16:27.522Z,10.90
2022-10-10T02:18:55.868Z,10.90
2022-10-10T02:21:23.706Z,10.90
2022-10-10T02:23:52.839Z,10.90
2022-10-10T02:26:21.375Z,10.90
2022-10-10T02:29:12.675Z,10.90
2022-10-10T02:31:45.671Z,10.90
2022-10-10T02:34:16.207Z,10.90
2022-10-10T02:36:55.867Z,10.80
2022-10-10T02:39:25.988Z,10.80
2022-10-10T02:41:53.133Z,10.70
2022-10-10T02:44:21.296Z,10.70
2022-10-10T02:46:47.926Z,10.70
2022-10-10T02:49:14.667Z,10.70
2022-10-10T02:51:41.245Z,10.70
2022-10-10T02:54:07.805Z,10.60
2022-10-10T02:56:34.484Z,10.70
2022-10-10T02:59:01.033Z,10.60
2022-10-10T03:01:27.603Z,10.60
2022-10-10T03:03:54.210Z,10.50
2022-10-10T03:06:20.870Z,10.50
2022-10-10T03:08:47.423Z,10.50
2022-10-10T03:11:13.977Z,10.50
2022-10-10T03:13:40.549Z,10.50
2022-10-10T03:16:07.201Z,10.40
2022-10-10T03:18:33.755Z,10.30
2022-10-10T03:21:00.303Z,10.30
2022-10-10T03:23:26.910Z,10.30
2022-10-10T03:25:53.531Z,10.40
2022-10-10T03:28:20.431Z,10.50
2022-10-10T03:30:47.400Z,10.40
2022-10-10T03:33:14.102Z,10.40
2022-10-10T03:35:40.708Z,10.30
2022-10-10T03:38:07.325Z,10.20
2022-10-10T03:40:34.574Z,10.20
2022-10-10T03:43:01.126Z,10.30
2022-10-10T03:45:27.676Z,10.30
2022-10-10T03:47:54.304Z,10.40
2022-10-10T03:50:20.830Z,10.30
2022-10-10T03:52:47.562Z,10.20
2022-10-10T03:55:14.282Z,10.20
2022-10-10T03:57:40.829Z,10.20
2022-10-10T04:00:08.136Z,10.20
2022-10-10T04:02:34.717Z,10.20
2022-10-10T04:05:01.389Z,10.20
2022-10-10T04:07:28.369Z,10.20
2022-10-10T04:09:54.933Z,10.20
2022-10-10T04:12:21.569Z,10.20
2022-10-10T04:14:48.125Z,10.20
2022-10-10T04:17:14.989Z,10.20
2022-10-10T04:19:41.551Z,10.30
2022-10-10T04:22:11.084Z,10.20
2022-10-10T04:24:37.984Z,10.20
2022-10-10T04:27:04.594Z,10.20
2022-10-10T04:29:31.259Z,10.30
2022-10-10T04:31:57.808Z,10.30
2022-10-10T04:34:24.462Z,10.30
2022-10-10T04:36:50.999Z,10.40
2022-10-10T04:39:17.589Z,10.40
2022-10-10T04:41:44.300Z,10.30
2022-10-10T04:44:10.847Z,10.20
2022-10-10T04:46:37.392Z,10.20
2022-10-10T04:49:03.954Z,10.20
2022-10-10T04:51:30.511Z,10.20
2022-10-10T04:53:57.080Z,10.20
2022-10-10T04:56:25.415Z,10.10
2022-10-10T04:58:52.303Z,10.10
2022-10-10T05:01:18.887Z,10.00
2022-10-10T05:03:45.604Z,10.00
2022-10-10T05:06:12.408Z,10.10
2022-10-10T05:08:39.020Z,10.10
2022-10-10T05:11:05.719Z,10.10
2022-10-10T05:13:32.251Z,10.00
2022-10-10T05:16:00.057Z,10.00
2022-10-10T05:18:26.660Z,10.00
2022-10-10T05:20:53.200Z,9.90
2022-10-10T05:23:19.763Z,9.90
2022-10-10T05:25:50.809Z,9.90
2022-10-10T05:28:17.632Z,10.00
2022-10-10T05:30:44.220Z,10.00
2022-10-10T05:33:11.179Z,10.10
2022-10-10T05:35:48.621Z,10.10
2022-10-10T05:38:15.196Z,10.10
2022-10-10T05:40:42.339Z,10.00
2022-10-10T05:43:09.014Z,10.10
2022-10-10T05:45:35.798Z,10.10
2022-10-10T05:48:02.831Z,10.10
2022-10-10T05:50:39.451Z,10.10
2022-10-10T05:53:06.820Z,10.20
2022-10-10T05:55:33.516Z,10.20
2022-10-10T05:58:00.057Z,10.40
2022-10-10T06:00:26.654Z,10.50
2022-10-10T06:02:53.691Z,10.50
2022-10-10T06:05:20.622Z,10.50
2022-10-10T06:08:04.729Z,10.50
2022-10-10T06:10:46.397Z,10.60
2022-10-10T06:13:17.433Z,10.60
2022-10-10T06:15:50.319Z,10.60
2022-10-10T06:18:16.863Z,11.50
2022-10-10T06:20:43.413Z,10.80
2022-10-10T06:28:08.592Z,11.30
2022-10-10T06:30:43.321Z,11.30
2022-10-10T06:33:10.993Z,11.40
2022-10-10T06:35:48.680Z,11.40
2022-10-10T06:38:16.683Z,11.50
2022-10-10T06:40:43.751Z,11.50
2022-10-10T06:43:12.187Z,11.50
2022-10-10T06:45:40.708Z,11.50
2022-10-10T06:48:08.298Z,11.60
2022-10-10T06:50:35.439Z,11.80
2022-10-10T06:53:02.272Z,11.80
2022-10-10T06:55:28.831Z,11.90
2022-10-10T06:57:55.755Z,12.00
2022-10-10T07:00:22.313Z,12.10
2022-10-10T07:02:49.267Z,12.30
2022-10-10T07:05:17.616Z,12.50
2022-10-10T07:07:45.328Z,12.70
2022-10-10T07:10:13.951Z,12.70
2022-10-10T07:12:44.436Z,12.80
2022-10-10T07:15:11.855Z,12.70
2022-10-10T07:17:38.520Z,12.60
2022-10-10T07:20:05.718Z,12.40
2022-10-10T07:22:32.555Z,12.30
2022-10-10T07:24:59.124Z,12.20
2022-10-10T07:27:25.656Z,12.20
2022-10-10T07:29:52.199Z,12.20
2022-10-10T07:32:18.734Z,12.10
2022-10-10T07:34:45.298Z,12.20
2022-10-10T07:37:11.830Z,12.20
2022-10-10T07:39:38.397Z,12.20
2022-10-10T07:42:04.955Z,12.30
2022-10-10T07:44:34.616Z,12.30
2022-10-10T07:47:01.591Z,12.30
2022-10-10T07:49:28.252Z,12.40
2022-10-10T07:51:58.814Z,12.50
2022-10-10T07:54:27.275Z,12.70
2022-10-10T07:56:53.793Z,12.90
2022-10-10T08:04:14.705Z,13.50
2022-10-10T08:06:41.341Z,13.60
2022-10-10T08:09:07.950Z,13.80
2022-10-10T08:11:34.531Z,13.90
2022-10-10T08:16:30.500Z,14.10
2022-10-10T08:18:57.254Z,14.10
2022-10-10T08:21:24.189Z,14.00
2022-10-10T08:23:50.774Z,14.00
2022-10-10T08:26:18.151Z,13.90
2022-10-10T08:28:45.486Z,14.00
2022-10-10T08:31:18.113Z,14.10
2022-10-10T08:33:46.135Z,14.20
2022-10-10T08:36:16.194Z,14.30
2022-10-10T08:38:43.214Z,14.20
2022-10-10T08:41:24.118Z,14.10
2022-10-10T08:44:15.370Z,14.20
2022-10-10T08:46:48.351Z,14.50
2022-10-10T08:49:31.531Z,14.60
2022-10-10T08:52:13.270Z,14.80
2022-10-10T08:54:42.531Z,14.80
2022-10-10T08:57:25.981Z,15.00
2022-10-10T08:59:56.374Z,15.00
2022-10-10T09:02:50.192Z,15.20
2022-10-10T09:05:20.287Z,15.30
2022-10-10T09:08:27.188Z,15.40
2022-10-10T09:11:04.640Z,15.60
2022-10-10T09:13:39.859Z,15.80
2022-10-10T09:18:40.879Z,16.20
2022-10-10T09:21:18.682Z,16.40
2022-10-10T09:24:04.234Z,16.60
2022-10-10T09:26:39.936Z,16.50
2022-10-10T09:29:27.848Z,16.40
2022-10-10T09:32:05.430Z,16.20
2022-10-10T09:34:32.269Z,16.00
2022-10-10T09:37:02.445Z,16.10
2022-10-10T09:39:38.713Z,16.40
2022-10-10T09:42:12.254Z,17.20
2022-10-10T09:44:40.460Z,17.50
2022-10-10T09:47:07.151Z,18.10
2022-10-10T09:49:34.896Z,18.30
2022-10-10T09:52:17.289Z,18.50
2022-10-10T09:54:44.522Z,18.60
2022-10-10T09:57:15.843Z,18.80
2022-10-10T09:59:47.607Z,18.70
2022-10-10T10:02:20.956Z,18.50
2022-10-10T10:04:49.582Z,18.40
2022-10-10T10:07:32.190Z,18.20
2022-10-10T10:10:01.484Z,18.20
2022-10-10T10:12:42.529Z,18.20
2022-10-10T10:15:31.932Z,18.20
2022-10-10T10:18:21.762Z,18.20
2022-10-10T10:20:50.984Z,18.20
2022-10-10T10:23:26.833Z,18.00
2022-10-10T10:25:59.739Z,17.90
2022-10-10T10:28:27.085Z,17.70
2022-10-10T10:30:55.909Z,17.60
2022-10-10T10:33:46.057Z,17.70
2022-10-10T10:36:30.318Z,17.70
2022-10-10T10:39:19.578Z,17.80
2022-10-10T10:42:02.513Z,17.80
2022-10-10T10:44:54.090Z,17.90
2022-10-10T10:47:27.066Z,18.00
2022-10-10T10:50:24.454Z,18.00
2022-10-10T10:53:07.967Z,18.00
2022-10-10T10:56:14.732Z,18.00
2022-10-10T10:59:35.716Z,18.30
2022-10-10T11:02:31.168Z,18.80
2022-10-10T12:55:32.279Z,19.60
2022-10-10T12:58:03.715Z,19.50
2022-10-10T13:00:41.559Z,19.30
2022-10-10T13:03:23.372Z,19.40
2022-10-10T13:05:51.469Z,19.50
2022-10-10T13:08:27.009Z,19.70
2022-10-10T13:11:10.691Z,20.00
2022-10-10T13:13:38.163Z,20.10
2022-10-10T13:16:13.644Z,20.20
2022-10-10T13:18:50.598Z,20.30
2022-10-10T13:21:26.902Z,20.30
2022-10-10T13:24:03.425Z,20.40
2022-10-10T13:26:40.318Z,20.50
2022-10-10T13:29:25.012Z,20.50
2022-10-10T13:31:53.903Z,20.50
2022-10-10T13:34:27.800Z,20.60
2022-10-10T13:37:00.565Z,20.50
2022-10-10T13:39:29.177Z,20.50
2022-10-10T13:41:56.725Z,20.50
2022-10-10T13:44:47.271Z,20.60
2022-10-10T13:47:46.576Z,20.80
2022-10-10T13:50:28.727Z,20.80
2022-10-10T13:53:26.470Z,20.80
2022-10-10T13:56:05.029Z,20.80
2022-10-10T13:58:38.833Z,20.90
2022-10-10T14:01:05.793Z,20.80
2022-10-10T14:03:33.797Z,20.90
2022-10-10T14:06:00.927Z,20.80
2022-10-10T14:08:36.547Z,20.90
2022-10-10T14:11:08.709Z,20.90
2022-10-10T14:13:38.110Z,20.70
2022-10-10T14:16:16.945Z,20.90
2022-10-10T14:18:44.035Z,20.80
2022-10-10T14:21:11.283Z,20.70
2022-10-10T14:23:38.323Z,20.60
2022-10-10T14:26:07.849Z,20.50
2022-10-10T14:28:37.180Z,20.40
2022-10-10T14:31:04.546Z,20.40
2022-10-10T14:33:31.728Z,20.40
2022-10-10T14:35:59.467Z,20.60
2022-10-10T14:38:27.015Z,20.60
2022-10-10T14:40:54.894Z,20.70
2022-10-10T14:43:22.614Z,20.60
2022-10-10T14:45:51.709Z,20.40
2022-10-10T14:48:19.286Z,20.50
2022-10-10T14:50:47.828Z,20.20
2022-10-10T14:53:15.193Z,20.40
2022-10-10T14:55:43.444Z,20.20
2022-10-10T14:58:18.261Z,20.20
2022-10-10T15:00:45.573Z,20.10
2022-10-10T15:03:12.517Z,19.90
2022-10-10T15:05:39.642Z,19.90
2022-10-10T15:08:07.318Z,19.80
2022-10-10T15:10:35.101Z,19.90
2022-10-10T15:13:02.268Z,19.80
2022-10-10T15:15:29.088Z,19.80
2022-10-10T15:17:58.869Z,19.70
2022-10-10T15:20:30.922Z,19.70
2022-10-10T15:22:59.682Z,19.80
2022-10-10T15:25:32.295Z,19.80
2022-10-10T15:28:01.015Z,19.80
2022-10-10T15:30:27.632Z,19.80
2022-10-10T15:32:54.251Z,19.90
2022-10-10T15:35:23.426Z,20.00
2022-10-10T15:37:50.188Z,20.00
2022-10-10T15:40:20.295Z,20.00
2022-10-10T15:42:48.656Z,20.00
2022-10-10T15:45:26.559Z,19.90
2022-10-10T15:48:01.925Z,19.70
2022-10-10T15:50:28.503Z,19.60
2022-10-10T15:52:55.064Z,19.40
2022-10-10T15:55:21.638Z,19.30
2022-10-10T15:57:48.204Z,19.20
2022-10-10T16:00:15.472Z,19.10
2022-10-10T16:02:42.070Z,19.00
2022-10-10T16:05:10.073Z,19.00
2022-10-10T16:07:46.719Z,18.90
2022-10-10T16:10:14.897Z,18.80
2022-10-10T16:12:41.486Z,18.60
2022-10-10T16:15:08.603Z,18.50
2022-10-10T16:17:35.260Z,18.40
2022-10-10T16:20:02.149Z,18.20
2022-10-10T16:22:28.769Z,18.20
2022-10-10T16:27:42.912Z,17.80
2022-10-10T16:30:10.238Z,17.70
2022-10-10T16:32:42.057Z,17.60
2022-10-10T16:35:10.338Z,17.60
2022-10-10T16:37:36.972Z,17.50
2022-10-10T16:40:04.415Z,17.40
2022-10-10T16:42:30.968Z,17.30
2022-10-10T16:44:57.518Z,17.20
2022-10-10T16:47:24.094Z,17.20
2022-10-10T16:49:50.686Z,17.10
2022-10-10T16:52:17.264Z,17.00
2022-10-10T17:11:59.229Z,15.90
2022-10-10T17:14:25.850Z,15.80
2022-10-10T17:17:11.248Z,15.60
2022-10-10T17:19:38.962Z,15.60
2022-10-10T17:22:05.692Z,15.50
2022-10-10T17:24:32.369Z,15.50
2022-10-10T17:26:58.956Z,15.40
2022-10-10T17:29:25.552Z,15.40
2022-10-10T17:31:52.164Z,15.40
2022-10-10T17:34:19.199Z,15.40
2022-10-10T17:36:45.778Z,15.40
2022-10-10T17:39:12.355Z,15.40
2022-10-10T17:41:39.029Z,15.40
2022-10-10T17:44:10.196Z,15.60
2022-10-10T17:46:37.507Z,15.60
2022-10-10T17:49:06.138Z,15.70
2022-10-10T17:51:34.470Z,15.70
2022-10-10T17:54:02.691Z,15.80
2022-10-10T17:56:29.351Z,15.90
2022-10-10T17:58:56.208Z,15.90
2022-10-10T18:01:23.046Z,15.80
2022-10-10T18:03:49.762Z,15.80
2022-10-10T18:06:20.400Z,15.70
2022-10-10T18:08:47.960Z,15.50
2022-10-10T18:11:17.029Z,15.50
2022-10-10T18:13:44.156Z,15.50
2022-10-10T18:16:15.903Z,15.70
2022-10-10T18:18:49.664Z,15.90
2022-10-10T18:21:18.236Z,16.00
2022-10-10T18:23:44.869Z,16.10
2022-10-10T18:26:17.796Z,16.20
2022-10-10T18:28:44.687Z,16.10
2022-10-10T18:31:21.249Z,16.00
2022-10-10T18:33:48.485Z,15.80
2022-10-10T18:36:18.544Z,15.40
2022-10-10T18:38:45.338Z,15.10
2022-10-10T18:41:17.690Z,14.80
2022-10-10T18:43:48.636Z,14.60
2022-10-10T18:46:17.830Z,14.30
2022-10-10T18:48:48.043Z,14.10
2022-10-10T18:51:24.392Z,14.00
2022-10-10T18:53:53.114Z,14.00
2022-10-10T18:56:24.220Z,13.90
2022-10-10T18:58:55.617Z,13.90
2022-10-10T19:01:25.371Z,13.80
2022-10-10T19:03:53.341Z,13.70
2022-10-10T19:06:20.587Z,13.80
2022-10-10T19:08:47.174Z,13.70
2022-10-10T19:11:28.901Z,13.70
2022-10-10T19:13:56.266Z,13.80
2022-10-10T19:16:22.873Z,13.80
2022-10-10T19:18:49.455Z,13.80
2022-10-10T19:21:16.800Z,13.90
2022-10-10T19:23:44.057Z,13.90
2022-10-10T19:26:13.771Z,13.90
2022-10-10T19:28:40.774Z,14.00
2022-10-10T19:31:10.717Z,14.00
2022-10-10T19:33:37.905Z,14.10
2022-10-10T19:36:06.746Z,14.00
2022-10-10T19:38:34.036Z,14.00
2022-10-10T19:41:01.148Z,14.00
2022-10-10T19:43:27.972Z,13.90
2022-10-10T19:48:24.745Z,13.90
2022-10-10T19:50:53.768Z,13.80
2022-10-10T19:53:20.396Z,13.60
2022-10-10T19:56:00.040Z,13.70
2022-10-10T19:58:27.837Z,13.80
2022-10-10T20:00:54.520Z,13.80
2022-10-10T20:03:21.330Z,13.80
2022-10-10T20:05:48.005Z,13.80
2022-10-10T20:08:14.939Z,13.70
2022-10-10T20:10:46.259Z,13.90
2022-10-10T20:13:15.926Z,13.80
2022-10-10T20:15:44.141Z,14.40
2022-10-10T20:18:11.948Z,13.70
2022-10-10T20:20:42.759Z,13.90
2022-10-10T20:23:10.517Z,13.90
2022-10-10T20:25:38.972Z,13.90
2022-10-10T20:28:06.170Z,13.90
2022-10-10T20:30:33.338Z,13.80
2022-10-10T20:33:00.290Z,13.90
2022-10-10T20:35:26.887Z,13.80
2022-10-10T20:37:53.484Z,13.70
2022-10-10T20:40:20.104Z,13.60
2022-10-10T20:42:46.717Z,13.60
2022-10-10T20:45:13.290Z,13.60
2022-10-10T20:47:39.982Z,13.50
2022-10-10T20:50:07.343Z,13.60
2022-10-10T20:52:33.925Z,13.60
2022-10-10T20:55:00.521Z,13.50
2022-10-10T20:57:27.183Z,13.60
2022-10-10T20:59:53.812Z,13.60
2022-10-10T21:02:20.445Z,13.60
2022-10-10T21:04:47.052Z,13.60
2022-10-10T21:07:14.147Z,13.60
2022-10-10T21:09:40.793Z,13.70
2022-10-10T21:12:07.495Z,13.70
2022-10-10T21:14:34.160Z,13.70
2022-10-10T21:17:00.765Z,13.40
2022-10-10T21:19:27.359Z,13.50
2022-10-10T21:21:53.937Z,13.50
2022-10-10T21:24:20.548Z,13.30
2022-10-10T21:26:49.082Z,13.20
2022-10-10T21:29:15.896Z,13.10
2022-10-10T21:31:42.736Z,13.10
2022-10-10T21:34:13.288Z,13.20
2022-10-10T21:36:40.268Z,13.10
2022-10-10T21:39:07.052Z,13.10
2022-10-10T21:41:33.765Z,13.20
2022-10-10T21:44:00.419Z,13.30
2022-10-10T21:46:34.790Z,13.40
2022-10-10T21:49:08.074Z,13.40
2022-10-10T21:51:37.764Z,13.50
2022-10-10T21:54:04.756Z,13.40
2022-10-10T21:56:31.419Z,13.50
2022-10-10T21:59:01.224Z,13.40
2022-10-10T22:01:28.747Z,13.40
2022-10-10T22:03:56.281Z,13.30
2022-10-10T22:06:24.468Z,13.30
2022-10-10T22:08:52.410Z,13.50
2022-10-10T22:11:22.333Z,13.40
2022-10-10T22:13:49.708Z,13.40
2022-10-10T22:16:16.479Z,13.40
2022-10-10T22:18:43.536Z,13.40
2022-10-10T22:21:13.838Z,13.50
2022-10-10T22:23:40.812Z,13.40
2022-10-10T22:26:09.653Z,13.50
2022-10-10T22:28:36.678Z,13.40
2022-10-10T22:31:08.258Z,13.50
2022-10-10T22:33:34.932Z,13.50
2022-10-10T22:36:02.052Z,13.20
2022-10-10T22:38:28.867Z,13.50
2022-10-10T22:40:55.677Z,13.50
2022-10-10T22:43:26.638Z,13.50
2022-10-10T22:45:53.756Z,13.50
2022-10-10T22:48:20.475Z,13.50
2022-10-10T22:50:47.107Z,13.50
2022-10-10T22:53:13.725Z,13.50
2022-10-10T22:55:40.300Z,13.40
2022-10-10T22:58:06.918Z,13.40
2022-10-10T23:00:33.594Z,13.40
2022-10-10T23:03:00.304Z,13.40
2022-10-10T23:05:26.981Z,13.40
2022-10-10T23:07:53.755Z,13.50
2022-10-10T23:10:20.414Z,13.50
2022-10-10T23:12:47.040Z,13.50
2022-10-10T23:15:13.634Z,13.50
2022-10-10T23:17:40.199Z,13.40
2022-10-10T23:20:07.600Z,13.50
2022-10-10T23:22:34.166Z,13.40
2022-10-10T23:25:00.783Z,13.40
2022-10-10T23:27:27.360Z,13.30
2022-10-10T23:29:53.974Z,13.30
2022-10-10T23:32:22.876Z,13.30
2022-10-10T23:34:49.447Z,13.10
2022-10-10T23:37:16.056Z,13.10
2022-10-10T23:39:42.765Z,13.20
2022-10-10T23:42:09.338Z,13.10
2022-10-10T23:44:35.910Z,13.10
2022-10-10T23:47:02.485Z,12.90
2022-10-10T23:49:29.089Z,12.90
2022-10-10T23:51:55.674Z,12.80
2022-10-10T23:54:22.256Z,12.40
